sensor_id;sensor_type;location;lat;lon;timestamp;P1;durP1;ratioP1;P2;durP2;ratioP2
10957;SDS011;5531;42.570;23.676;2022-11-15T00:01:58;38.28;;;14.18;;
10957;SDS011;5531;42.570;23.676;2022-11-15T00:04:32;27.17;;;11.88;;
10957;SDS011;5531;42.570;23.676;2022-11-15T00:07:01;29.65;;;12.90;;
10957;SDS011;5531;42.570;23.676;2022-11-15T00:09:30;26.52;;;14.10;;
10957;SDS011;5531;42.570;23.676;2022-11-15T00:11:59;32.25;;;12.70;;
10957;SDS011;5531;42.570;23.676;2022-11-15T00:14:29;35.53;;;13.88;;
10957;SDS011;5531;42.570;23.676;2022-11-15T00:16:58;30.30;;;13.75;;
10957;SDS011;5531;42.570;23.676;2022-11-15T00:19:27;31.45;;;12.98;;
10957;SDS011;5531;42.570;23.676;2022-11-15T00:21:59;33.50;;;13.90;;
10957;SDS011;5531;42.570;23.676;2022-11-15T00:24:28;32.50;;;12.20;;
10957;SDS011;5531;42.570;23.676;2022-11-15T00:26:58;31.00;;;12.63;;
10957;SDS011;5531;42.570;23.676;2022-11-15T00:29:27;38.17;;;13.10;;
10957;SDS011;5531;42.570;23.676;2022-11-15T00:31:56;28.75;;;12.90;;
10957;SDS011;5531;42.570;23.676;2022-11-15T00:34:26;31.13;;;13.77;;
10957;SDS011;5531;42.570;23.676;2022-11-15T00:36:55;31.20;;;13.32;;
10957;SDS011;5531;42.570;23.676;2022-11-15T00:39:27;35.75;;;13.90;;
10957;SDS011;5531;42.570;23.676;2022-11-15T00:41:56;28.67;;;12.05;;
10957;SDS011;5531;42.570;23.676;2022-11-15T00:44:25;38.75;;;13.10;;
10957;SDS011;5531;42.570;23.676;2022-11-15T00:46:55;39.42;;;12.55;;
10957;SDS011;5531;42.570;23.676;2022-11-15T00:49:25;29.83;;;10.93;;
10957;SDS011;5531;42.570;23.676;2022-11-15T00:51:54;29.02;;;11.48;;
10957;SDS011;5531;42.570;23.676;2022-11-15T00:54:23;29.13;;;11.25;;
10957;SDS011;5531;42.570;23.676;2022-11-15T00:56:55;25.73;;;10.45;;
10957;SDS011;5531;42.570;23.676;2022-11-15T00:59:24;27.67;;;9.70;;
10957;SDS011;5531;42.570;23.676;2022-11-15T01:01:53;23.55;;;10.63;;
10957;SDS011;5531;42.570;23.676;2022-11-15T01:04:23;25.90;;;10.65;;
10957;SDS011;5531;42.570;23.676;2022-11-15T01:06:52;21.95;;;10.68;;
10957;SDS011;5531;42.570;23.676;2022-11-15T01:09:21;24.23;;;11.13;;
10957;SDS011;5531;42.570;23.676;2022-11-15T01:11:50;28.00;;;10.23;;
10957;SDS011;5531;42.570;23.676;2022-11-15T01:14:23;25.20;;;10.63;;
10957;SDS011;5531;42.570;23.676;2022-11-15T01:16:52;24.23;;;11.27;;
10957;SDS011;5531;42.570;23.676;2022-11-15T01:19:21;26.45;;;10.50;;
10957;SDS011;5531;42.570;23.676;2022-11-15T01:21:51;20.83;;;10.45;;
10957;SDS011;5531;42.570;23.676;2022-11-15T01:24:20;25.75;;;10.32;;
10957;SDS011;5531;42.570;23.676;2022-11-15T01:26:50;25.42;;;10.70;;
10957;SDS011;5531;42.570;23.676;2022-11-15T01:29:19;26.75;;;10.70;;
10957;SDS011;5531;42.570;23.676;2022-11-15T01:31:52;27.50;;;11.05;;
10957;SDS011;5531;42.570;23.676;2022-11-15T01:34:21;23.95;;;10.75;;
10957;SDS011;5531;42.570;23.676;2022-11-15T01:36:50;23.10;;;9.65;;
10957;SDS011;5531;42.570;23.676;2022-11-15T01:39:19;26.85;;;10.27;;
10957;SDS011;5531;42.570;23.676;2022-11-15T01:41:48;21.85;;;10.40;;
10957;SDS011;5531;42.570;23.676;2022-11-15T01:47:18;23.33;;;10.38;;
10957;SDS011;5531;42.570;23.676;2022-11-15T01:49:51;27.90;;;10.38;;
10957;SDS011;5531;42.570;23.676;2022-11-15T01:52:24;24.75;;;9.50;;
10957;SDS011;5531;42.570;23.676;2022-11-15T01:54:58;23.80;;;9.45;;
10957;SDS011;5531;42.570;23.676;2022-11-15T01:57:30;18.45;;;9.55;;
10957;SDS011;5531;42.570;23.676;2022-11-15T01:59:59;24.52;;;10.77;;
10957;SDS011;5531;42.570;23.676;2022-11-15T02:02:31;28.95;;;10.25;;
10957;SDS011;5531;42.570;23.676;2022-11-15T02:05:01;26.70;;;10.40;;
10957;SDS011;5531;42.570;23.676;2022-11-15T02:07:30;30.77;;;11.13;;
10957;SDS011;5531;42.570;23.676;2022-11-15T02:10:02;27.35;;;9.98;;
10957;SDS011;5531;42.570;23.676;2022-11-15T02:12:35;25.05;;;11.20;;
10957;SDS011;5531;42.570;23.676;2022-11-15T02:15:05;26.45;;;10.35;;
10957;SDS011;5531;42.570;23.676;2022-11-15T02:17:46;28.50;;;10.60;;
10957;SDS011;5531;42.570;23.676;2022-11-15T02:29:23;17.17;;;10.23;;
10957;SDS011;5531;42.570;23.676;2022-11-15T02:32:07;18.08;;;8.60;;
10957;SDS011;5531;42.570;23.676;2022-11-15T02:34:45;22.63;;;8.85;;
10957;SDS011;5531;42.570;23.676;2022-11-15T02:37:21;15.48;;;8.88;;
10957;SDS011;5531;42.570;23.676;2022-11-15T02:40:02;17.90;;;8.60;;
10957;SDS011;5531;42.570;23.676;2022-11-15T02:42:39;30.98;;;9.70;;
10957;SDS011;5531;42.570;23.676;2022-11-15T02:45:30;23.63;;;9.57;;
10957;SDS011;5531;42.570;23.676;2022-11-15T02:48:05;20.33;;;10.10;;
10957;SDS011;5531;42.570;23.676;2022-11-15T02:50:35;22.95;;;9.68;;
10957;SDS011;5531;42.570;23.676;2022-11-15T02:53:05;27.90;;;10.25;;
10957;SDS011;5531;42.570;23.676;2022-11-15T02:55:36;23.95;;;10.90;;
10957;SDS011;5531;42.570;23.676;2022-11-15T02:58:19;32.03;;;11.35;;
10957;SDS011;5531;42.570;23.676;2022-11-15T03:00:59;25.08;;;9.65;;
10957;SDS011;5531;42.570;23.676;2022-11-15T03:03:47;29.17;;;10.63;;
10957;SDS011;5531;42.570;23.676;2022-11-15T03:06:27;22.70;;;11.02;;
10957;SDS011;5531;42.570;23.676;2022-11-15T03:09:04;25.25;;;10.82;;
10957;SDS011;5531;42.570;23.676;2022-11-15T03:11:40;22.73;;;10.80;;
10957;SDS011;5531;42.570;23.676;2022-11-15T03:14:16;18.63;;;10.35;;
10957;SDS011;5531;42.570;23.676;2022-11-15T03:16:50;21.58;;;10.43;;
10957;SDS011;5531;42.570;23.676;2022-11-15T03:19:30;23.08;;;8.27;;
10957;SDS011;5531;42.570;23.676;2022-11-15T03:22:04;33.72;;;8.27;;
10957;SDS011;5531;42.570;23.676;2022-11-15T03:24:37;26.35;;;6.90;;
10957;SDS011;5531;42.570;23.676;2022-11-15T03:27:07;23.38;;;7.25;;
10957;SDS011;5531;42.570;23.676;2022-11-15T03:29:41;18.65;;;7.60;;
10957;SDS011;5531;42.570;23.676;2022-11-15T03:32:15;20.83;;;7.35;;
10957;SDS011;5531;42.570;23.676;2022-11-15T03:34:51;16.60;;;7.05;;
10957;SDS011;5531;42.570;23.676;2022-11-15T03:37:25;30.88;;;7.65;;
10957;SDS011;5531;42.570;23.676;2022-11-15T03:40:01;15.27;;;7.35;;
10957;SDS011;5531;42.570;23.676;2022-11-15T03:42:32;31.27;;;9.50;;
10957;SDS011;5531;42.570;23.676;2022-11-15T03:45:08;12.77;;;8.15;;
10957;SDS011;5531;42.570;23.676;2022-11-15T03:47:43;18.63;;;7.47;;
10957;SDS011;5531;42.570;23.676;2022-11-15T03:50:19;16.92;;;7.63;;
10957;SDS011;5531;42.570;23.676;2022-11-15T03:52:51;16.73;;;7.30;;
10957;SDS011;5531;42.570;23.676;2022-11-15T03:55:23;16.15;;;6.80;;
10957;SDS011;5531;42.570;23.676;2022-11-15T03:57:53;12.23;;;7.28;;
10957;SDS011;5531;42.570;23.676;2022-11-15T04:00:26;25.33;;;6.82;;
10957;SDS011;5531;42.570;23.676;2022-11-15T04:02:56;12.77;;;6.65;;
10957;SDS011;5531;42.570;23.676;2022-11-15T04:05:27;13.40;;;7.10;;
10957;SDS011;5531;42.570;23.676;2022-11-15T04:07:57;15.43;;;7.65;;
10957;SDS011;5531;42.570;23.676;2022-11-15T04:10:26;20.48;;;7.38;;
10957;SDS011;5531;42.570;23.676;2022-11-15T04:12:55;20.10;;;7.43;;
10957;SDS011;5531;42.570;23.676;2022-11-15T04:15:24;18.70;;;6.90;;
10957;SDS011;5531;42.570;23.676;2022-11-15T04:17:54;17.23;;;7.20;;
10957;SDS011;5531;42.570;23.676;2022-11-15T04:20:27;20.70;;;7.88;;
10957;SDS011;5531;42.570;23.676;2022-11-15T04:23:10;27.75;;;7.43;;
10957;SDS011;5531;42.570;23.676;2022-11-15T04:25:53;18.70;;;6.68;;
10957;SDS011;5531;42.570;23.676;2022-11-15T04:28:24;31.02;;;8.23;;
10957;SDS011;5531;42.570;23.676;2022-11-15T04:30:53;14.18;;;6.55;;
10957;SDS011;5531;42.570;23.676;2022-11-15T04:33:22;26.52;;;7.50;;
10957;SDS011;5531;42.570;23.676;2022-11-15T04:35:54;25.90;;;7.55;;
10957;SDS011;5531;42.570;23.676;2022-11-15T04:38:35;32.75;;;7.03;;
10957;SDS011;5531;42.570;23.676;2022-11-15T04:41:05;17.60;;;8.25;;
10957;SDS011;5531;42.570;23.676;2022-11-15T04:43:34;21.17;;;7.15;;
10957;SDS011;5531;42.570;23.676;2022-11-15T04:46:03;15.40;;;7.80;;
10957;SDS011;5531;42.570;23.676;2022-11-15T04:48:32;14.60;;;7.63;;
10957;SDS011;5531;42.570;23.676;2022-11-15T04:51:04;19.20;;;8.15;;
10957;SDS011;5531;42.570;23.676;2022-11-15T04:53:34;13.68;;;7.47;;
10957;SDS011;5531;42.570;23.676;2022-11-15T04:56:03;23.05;;;8.63;;
10957;SDS011;5531;42.570;23.676;2022-11-15T04:58:33;13.60;;;8.27;;
10957;SDS011;5531;42.570;23.676;2022-11-15T05:01:06;21.35;;;8.32;;
10957;SDS011;5531;42.570;23.676;2022-11-15T05:03:36;29.30;;;7.40;;
10957;SDS011;5531;42.570;23.676;2022-11-15T05:06:20;16.95;;;6.43;;
10957;SDS011;5531;42.570;23.676;2022-11-15T05:08:49;14.52;;;6.25;;
10957;SDS011;5531;42.570;23.676;2022-11-15T05:11:18;17.80;;;6.55;;
10957;SDS011;5531;42.570;23.676;2022-11-15T05:13:48;15.85;;;6.13;;
10957;SDS011;5531;42.570;23.676;2022-11-15T05:16:17;9.23;;;5.65;;
10957;SDS011;5531;42.570;23.676;2022-11-15T05:18:46;15.73;;;5.40;;
10957;SDS011;5531;42.570;23.676;2022-11-15T05:21:22;11.98;;;5.93;;
10957;SDS011;5531;42.570;23.676;2022-11-15T05:23:51;13.20;;;5.63;;
10957;SDS011;5531;42.570;23.676;2022-11-15T05:26:20;19.02;;;6.03;;
10957;SDS011;5531;42.570;23.676;2022-11-15T05:28:52;20.70;;;5.72;;
10957;SDS011;5531;42.570;23.676;2022-11-15T05:31:22;17.92;;;6.03;;
10957;SDS011;5531;42.570;23.676;2022-11-15T05:33:53;17.48;;;6.18;;
10957;SDS011;5531;42.570;23.676;2022-11-15T05:36:28;22.23;;;6.35;;
10957;SDS011;5531;42.570;23.676;2022-11-15T05:39:02;18.63;;;5.97;;
10957;SDS011;5531;42.570;23.676;2022-11-15T05:41:33;15.48;;;5.70;;
10957;SDS011;5531;42.570;23.676;2022-11-15T05:44:05;19.27;;;6.05;;
10957;SDS011;5531;42.570;23.676;2022-11-15T05:46:36;28.77;;;6.22;;
10957;SDS011;5531;42.570;23.676;2022-11-15T05:49:09;17.35;;;5.97;;
10957;SDS011;5531;42.570;23.676;2022-11-15T05:51:44;22.23;;;6.45;;
10957;SDS011;5531;42.570;23.676;2022-11-15T05:54:16;19.55;;;6.10;;
10957;SDS011;5531;42.570;23.676;2022-11-15T05:56:48;15.38;;;6.15;;
10957;SDS011;5531;42.570;23.676;2022-11-15T05:59:17;16.83;;;6.45;;
10957;SDS011;5531;42.570;23.676;2022-11-15T06:01:47;24.63;;;6.82;;
10957;SDS011;5531;42.570;23.676;2022-11-15T06:04:17;17.95;;;6.93;;
10957;SDS011;5531;42.570;23.676;2022-11-15T06:06:48;28.10;;;6.78;;
10957;SDS011;5531;42.570;23.676;2022-11-15T06:09:17;19.20;;;7.28;;
10957;SDS011;5531;42.570;23.676;2022-11-15T06:11:47;15.32;;;7.22;;
10957;SDS011;5531;42.570;23.676;2022-11-15T06:14:16;30.17;;;7.43;;
10957;SDS011;5531;42.570;23.676;2022-11-15T06:16:45;19.58;;;6.93;;
10957;SDS011;5531;42.570;23.676;2022-11-15T06:19:14;33.70;;;7.03;;
10957;SDS011;5531;42.570;23.676;2022-11-15T06:24:00;21.42;;;7.03;;
10957;SDS011;5531;42.570;23.676;2022-11-15T06:26:29;27.55;;;7.00;;
10957;SDS011;5531;42.570;23.676;2022-11-15T06:28:58;27.98;;;8.07;;
10957;SDS011;5531;42.570;23.676;2022-11-15T06:31:26;16.35;;;6.93;;
10957;SDS011;5531;42.570;23.676;2022-11-15T06:33:55;21.50;;;7.53;;
10957;SDS011;5531;42.570;23.676;2022-11-15T06:36:24;16.58;;;6.45;;
10957;SDS011;5531;42.570;23.676;2022-11-15T06:38:54;25.70;;;6.93;;
10957;SDS011;5531;42.570;23.676;2022-11-15T06:41:25;32.95;;;6.43;;
10957;SDS011;5531;42.570;23.676;2022-11-15T06:43:54;25.75;;;6.53;;
10957;SDS011;5531;42.570;23.676;2022-11-15T06:46:23;17.42;;;6.25;;
10957;SDS011;5531;42.570;23.676;2022-11-15T06:48:51;19.48;;;6.43;;
10957;SDS011;5531;42.570;23.676;2022-11-15T06:51:20;25.20;;;6.25;;
10957;SDS011;5531;42.570;23.676;2022-11-15T06:53:49;20.70;;;5.47;;
10957;SDS011;5531;42.570;23.676;2022-11-15T06:56:18;22.10;;;6.32;;
10957;SDS011;5531;42.570;23.676;2022-11-15T06:58:49;16.90;;;6.28;;
10957;SDS011;5531;42.570;23.676;2022-11-15T07:01:18;15.50;;;5.55;;
10957;SDS011;5531;42.570;23.676;2022-11-15T07:03:46;14.23;;;5.75;;
10957;SDS011;5531;42.570;23.676;2022-11-15T07:06:15;21.00;;;5.72;;
10957;SDS011;5531;42.570;23.676;2022-11-15T07:08:43;14.82;;;5.85;;
10957;SDS011;5531;42.570;23.676;2022-11-15T07:11:12;14.75;;;6.18;;
10957;SDS011;5531;42.570;23.676;2022-11-15T07:13:40;12.18;;;5.88;;
10957;SDS011;5531;42.570;23.676;2022-11-15T07:16:12;11.15;;;5.47;;
10957;SDS011;5531;42.570;23.676;2022-11-15T07:18:40;22.95;;;6.45;;
10957;SDS011;5531;42.570;23.676;2022-11-15T07:22:19;12.55;;;6.45;;
10957;SDS011;5531;42.570;23.676;2022-11-15T07:24:48;18.75;;;6.18;;
10957;SDS011;5531;42.570;23.676;2022-11-15T07:27:17;13.77;;;6.40;;
10957;SDS011;5531;42.570;23.676;2022-11-15T07:29:46;9.80;;;5.65;;
10957;SDS011;5531;42.570;23.676;2022-11-15T07:32:15;14.13;;;7.00;;
10957;SDS011;5531;42.570;23.676;2022-11-15T07:34:45;12.10;;;6.50;;
10957;SDS011;5531;42.570;23.676;2022-11-15T07:37:14;18.45;;;7.07;;
10957;SDS011;5531;42.570;23.676;2022-11-15T07:39:45;12.90;;;6.75;;
10957;SDS011;5531;42.570;23.676;2022-11-15T07:42:14;16.92;;;6.38;;
10957;SDS011;5531;42.570;23.676;2022-11-15T07:44:56;12.68;;;6.72;;
10957;SDS011;5531;42.570;23.676;2022-11-15T07:47:25;12.18;;;6.43;;
10957;SDS011;5531;42.570;23.676;2022-11-15T07:49:56;13.77;;;6.57;;
10957;SDS011;5531;42.570;23.676;2022-11-15T07:52:25;13.50;;;6.88;;
10957;SDS011;5531;42.570;23.676;2022-11-15T07:54:57;12.85;;;6.65;;
10957;SDS011;5531;42.570;23.676;2022-11-15T07:57:26;11.63;;;6.68;;
10957;SDS011;5531;42.570;23.676;2022-11-15T07:59:55;15.23;;;8.18;;
10957;SDS011;5531;42.570;23.676;2022-11-15T08:02:24;12.48;;;6.90;;
10957;SDS011;5531;42.570;23.676;2022-11-15T08:04:53;18.48;;;7.65;;
10957;SDS011;5531;42.570;23.676;2022-11-15T08:07:23;17.00;;;7.85;;
10957;SDS011;5531;42.570;23.676;2022-11-15T08:09:52;17.98;;;8.20;;
10957;SDS011;5531;42.570;23.676;2022-11-15T08:12:24;12.35;;;7.38;;
10957;SDS011;5531;42.570;23.676;2022-11-15T08:14:54;13.25;;;7.25;;
10957;SDS011;5531;42.570;23.676;2022-11-15T08:17:23;12.35;;;6.88;;
10957;SDS011;5531;42.570;23.676;2022-11-15T08:19:57;13.15;;;7.50;;
10957;SDS011;5531;42.570;23.676;2022-11-15T08:22:26;12.40;;;7.50;;
10957;SDS011;5531;42.570;23.676;2022-11-15T08:24:55;12.57;;;7.75;;
10957;SDS011;5531;42.570;23.676;2022-11-15T08:27:27;13.70;;;8.02;;
10957;SDS011;5531;42.570;23.676;2022-11-15T08:29:57;10.48;;;6.72;;
10957;SDS011;5531;42.570;23.676;2022-11-15T08:32:27;14.73;;;7.18;;
10957;SDS011;5531;42.570;23.676;2022-11-15T08:34:56;11.23;;;7.35;;
10957;SDS011;5531;42.570;23.676;2022-11-15T08:37:25;11.85;;;7.00;;
10957;SDS011;5531;42.570;23.676;2022-11-15T08:39:54;12.48;;;7.18;;
10957;SDS011;5531;42.570;23.676;2022-11-15T08:42:23;13.48;;;7.20;;
10957;SDS011;5531;42.570;23.676;2022-11-15T08:44:55;14.18;;;7.28;;
10957;SDS011;5531;42.570;23.676;2022-11-15T08:47:24;15.27;;;7.72;;
10957;SDS011;5531;42.570;23.676;2022-11-15T08:49:53;12.23;;;7.65;;
10957;SDS011;5531;42.570;23.676;2022-11-15T08:52:22;12.80;;;6.72;;
10957;SDS011;5531;42.570;23.676;2022-11-15T08:54:52;14.02;;;7.53;;
10957;SDS011;5531;42.570;23.676;2022-11-15T08:57:21;12.50;;;6.60;;
10957;SDS011;5531;42.570;23.676;2022-11-15T08:59:50;11.10;;;7.43;;
10957;SDS011;5531;42.570;23.676;2022-11-15T09:02:21;12.77;;;7.22;;
10957;SDS011;5531;42.570;23.676;2022-11-15T09:04:50;10.73;;;6.93;;
10957;SDS011;5531;42.570;23.676;2022-11-15T09:07:19;11.00;;;7.40;;
10957;SDS011;5531;42.570;23.676;2022-11-15T09:09:49;12.52;;;7.05;;
10957;SDS011;5531;42.570;23.676;2022-11-15T09:12:18;11.82;;;7.28;;
10957;SDS011;5531;42.570;23.676;2022-11-15T09:14:47;9.38;;;6.38;;
10957;SDS011;5531;42.570;23.676;2022-11-15T09:17:16;11.02;;;6.90;;
10957;SDS011;5531;42.570;23.676;2022-11-15T09:19:48;11.02;;;6.72;;
10957;SDS011;5531;42.570;23.676;2022-11-15T09:22:17;11.65;;;6.63;;
10957;SDS011;5531;42.570;23.676;2022-11-15T09:24:46;11.20;;;6.68;;
10957;SDS011;5531;42.570;23.676;2022-11-15T09:27:15;10.77;;;7.10;;
10957;SDS011;5531;42.570;23.676;2022-11-15T09:29:44;10.02;;;6.63;;
10957;SDS011;5531;42.570;23.676;2022-11-15T09:32:13;9.70;;;6.65;;
10957;SDS011;5531;42.570;23.676;2022-11-15T09:34:42;10.18;;;6.75;;
10957;SDS011;5531;42.570;23.676;2022-11-15T09:37:14;8.93;;;6.60;;
10957;SDS011;5531;42.570;23.676;2022-11-15T09:39:43;9.43;;;6.18;;
10957;SDS011;5531;42.570;23.676;2022-11-15T09:42:20;10.77;;;6.65;;
10957;SDS011;5531;42.570;23.676;2022-11-15T09:45:07;10.65;;;6.88;;
10957;SDS011;5531;42.570;23.676;2022-11-15T09:47:50;10.85;;;6.88;;
10957;SDS011;5531;42.570;23.676;2022-11-15T09:50:31;12.85;;;7.85;;
10957;SDS011;5531;42.570;23.676;2022-11-15T09:53:11;12.20;;;7.00;;
10957;SDS011;5531;42.570;23.676;2022-11-15T09:55:46;10.63;;;6.95;;
10957;SDS011;5531;42.570;23.676;2022-11-15T09:58:21;11.93;;;7.00;;
10957;SDS011;5531;42.570;23.676;2022-11-15T10:00:58;10.90;;;7.20;;
10957;SDS011;5531;42.570;23.676;2022-11-15T10:03:33;12.80;;;7.50;;
10957;SDS011;5531;42.570;23.676;2022-11-15T10:06:04;13.30;;;7.65;;
10957;SDS011;5531;42.570;23.676;2022-11-15T10:08:40;10.48;;;7.65;;
10957;SDS011;5531;42.570;23.676;2022-11-15T10:11:19;12.93;;;8.02;;
10957;SDS011;5531;42.570;23.676;2022-11-15T10:13:52;11.35;;;7.30;;
10957;SDS011;5531;42.570;23.676;2022-11-15T10:16:35;14.27;;;7.68;;
10957;SDS011;5531;42.570;23.676;2022-11-15T10:19:32;12.73;;;8.07;;
10957;SDS011;5531;42.570;23.676;2022-11-15T10:22:12;15.25;;;8.23;;
10957;SDS011;5531;42.570;23.676;2022-11-15T10:24:58;13.40;;;8.45;;
10957;SDS011;5531;42.570;23.676;2022-11-15T10:27:44;12.52;;;8.25;;
10957;SDS011;5531;42.570;23.676;2022-11-15T10:30:23;14.25;;;8.50;;
10957;SDS011;5531;42.570;23.676;2022-11-15T10:32:58;16.65;;;9.55;;
10957;SDS011;5531;42.570;23.676;2022-11-15T10:35:40;15.27;;;8.77;;
10957;SDS011;5531;42.570;23.676;2022-11-15T10:38:10;17.65;;;10.43;;
10957;SDS011;5531;42.570;23.676;2022-11-15T10:40:42;15.90;;;8.10;;
10957;SDS011;5531;42.570;23.676;2022-11-15T10:43:15;14.38;;;8.63;;
10957;SDS011;5531;42.570;23.676;2022-11-15T10:45:46;15.43;;;9.40;;
10957;SDS011;5531;42.570;23.676;2022-11-15T10:48:45;13.52;;;8.45;;
10957;SDS011;5531;42.570;23.676;2022-11-15T10:51:18;12.60;;;7.78;;
10957;SDS011;5531;42.570;23.676;2022-11-15T10:53:53;14.57;;;8.88;;
10957;SDS011;5531;42.570;23.676;2022-11-15T10:56:27;9.95;;;7.60;;
10957;SDS011;5531;42.570;23.676;2022-11-15T10:58:56;13.45;;;8.45;;
10957;SDS011;5531;42.570;23.676;2022-11-15T11:01:26;12.50;;;8.13;;
10957;SDS011;5531;42.570;23.676;2022-11-15T11:03:58;11.60;;;7.18;;
10957;SDS011;5531;42.570;23.676;2022-11-15T11:06:29;11.45;;;7.47;;
10957;SDS011;5531;42.570;23.676;2022-11-15T11:08:59;12.07;;;8.05;;
10957;SDS011;5531;42.570;23.676;2022-11-15T11:11:45;10.15;;;6.78;;
10957;SDS011;5531;42.570;23.676;2022-11-15T11:14:18;11.13;;;7.75;;
10957;SDS011;5531;42.570;23.676;2022-11-15T11:16:53;11.50;;;7.40;;
10957;SDS011;5531;42.570;23.676;2022-11-15T11:19:36;10.05;;;7.18;;
10957;SDS011;5531;42.570;23.676;2022-11-15T11:22:16;13.00;;;8.65;;
10957;SDS011;5531;42.570;23.676;2022-11-15T11:24:53;12.75;;;8.18;;
10957;SDS011;5531;42.570;23.676;2022-11-15T11:27:39;15.00;;;8.77;;
10957;SDS011;5531;42.570;23.676;2022-11-15T11:30:17;12.63;;;8.82;;
10957;SDS011;5531;42.570;23.676;2022-11-15T11:33:10;12.63;;;8.25;;
10957;SDS011;5531;42.570;23.676;2022-11-15T11:35:50;13.02;;;8.57;;
10957;SDS011;5531;42.570;23.676;2022-11-15T11:38:36;15.15;;;10.18;;
10957;SDS011;5531;42.570;23.676;2022-11-15T11:41:36;13.05;;;8.93;;
10957;SDS011;5531;42.570;23.676;2022-11-15T11:44:33;14.20;;;8.48;;
10957;SDS011;5531;42.570;23.676;2022-11-15T11:47:09;12.95;;;8.27;;
10957;SDS011;5531;42.570;23.676;2022-11-15T11:49:41;14.07;;;8.57;;
10957;SDS011;5531;42.570;23.676;2022-11-15T11:52:17;16.70;;;9.57;;
10957;SDS011;5531;42.570;23.676;2022-11-15T11:54:57;11.52;;;8.10;;
10957;SDS011;5531;42.570;23.676;2022-11-15T11:57:36;13.70;;;9.15;;
10957;SDS011;5531;42.570;23.676;2022-11-15T12:00:15;13.10;;;9.10;;
10957;SDS011;5531;42.570;23.676;2022-11-15T12:02:49;12.00;;;8.30;;
10957;SDS011;5531;42.570;23.676;2022-11-15T12:05:32;11.02;;;7.70;;
10957;SDS011;5531;42.570;23.676;2022-11-15T12:08:10;11.52;;;7.82;;
10957;SDS011;5531;42.570;23.676;2022-11-15T12:10:53;13.52;;;8.90;;
10957;SDS011;5531;42.570;23.676;2022-11-15T12:13:29;11.93;;;8.10;;
10957;SDS011;5531;42.570;23.676;2022-11-15T12:16:06;10.98;;;8.55;;
10957;SDS011;5531;42.570;23.676;2022-11-15T12:18:40;11.35;;;8.07;;
10957;SDS011;5531;42.570;23.676;2022-11-15T12:21:18;14.73;;;8.55;;
10957;SDS011;5531;42.570;23.676;2022-11-15T12:23:52;13.73;;;8.80;;
10957;SDS011;5531;42.570;23.676;2022-11-15T12:26:31;13.43;;;8.90;;
10957;SDS011;5531;42.570;23.676;2022-11-15T12:29:06;13.15;;;7.97;;
10957;SDS011;5531;42.570;23.676;2022-11-15T12:31:47;13.55;;;8.15;;
10957;SDS011;5531;42.570;23.676;2022-11-15T12:40:22;10.65;;;7.38;;
10957;SDS011;5531;42.570;23.676;2022-11-15T12:43:03;10.27;;;6.85;;
10957;SDS011;5531;42.570;23.676;2022-11-15T12:45:47;10.55;;;7.15;;
10957;SDS011;5531;42.570;23.676;2022-11-15T12:57:27;9.43;;;6.45;;
10957;SDS011;5531;42.570;23.676;2022-11-15T13:03:19;11.48;;;7.50;;
10957;SDS011;5531;42.570;23.676;2022-11-15T13:05:58;11.77;;;7.40;;
10957;SDS011;5531;42.570;23.676;2022-11-15T13:08:43;11.05;;;7.38;;
10957;SDS011;5531;42.570;23.676;2022-11-15T13:19:57;9.98;;;7.00;;
10957;SDS011;5531;42.570;23.676;2022-11-15T13:22:40;10.05;;;6.55;;
10957;SDS011;5531;42.570;23.676;2022-11-15T13:28:21;8.98;;;6.70;;
10957;SDS011;5531;42.570;23.676;2022-11-15T13:30:56;7.00;;;5.47;;
10957;SDS011;5531;42.570;23.676;2022-11-15T13:33:29;10.63;;;7.13;;
10957;SDS011;5531;42.570;23.676;2022-11-15T13:36:01;8.98;;;6.53;;
10957;SDS011;5531;42.570;23.676;2022-11-15T13:38:33;9.27;;;6.55;;
10957;SDS011;5531;42.570;23.676;2022-11-15T13:41:14;10.68;;;6.85;;
10957;SDS011;5531;42.570;23.676;2022-11-15T13:43:48;9.82;;;7.22;;
10957;SDS011;5531;42.570;23.676;2022-11-15T13:46:21;9.23;;;7.00;;
10957;SDS011;5531;42.570;23.676;2022-11-15T13:48:53;9.75;;;6.93;;
10957;SDS011;5531;42.570;23.676;2022-11-15T13:51:25;9.90;;;6.60;;
10957;SDS011;5531;42.570;23.676;2022-11-15T13:53:59;8.88;;;6.47;;
10957;SDS011;5531;42.570;23.676;2022-11-15T13:56:33;11.18;;;7.13;;
10957;SDS011;5531;42.570;23.676;2022-11-15T13:59:08;8.45;;;6.65;;
10957;SDS011;5531;42.570;23.676;2022-11-15T14:01:39;9.60;;;7.05;;
10957;SDS011;5531;42.570;23.676;2022-11-15T14:04:11;11.70;;;7.57;;
10957;SDS011;5531;42.570;23.676;2022-11-15T14:06:44;10.50;;;7.50;;
10957;SDS011;5531;42.570;23.676;2022-11-15T14:09:29;10.15;;;7.40;;
10957;SDS011;5531;42.570;23.676;2022-11-15T14:17:57;12.07;;;7.53;;
10957;SDS011;5531;42.570;23.676;2022-11-15T14:20:27;10.18;;;7.32;;
10957;SDS011;5531;42.570;23.676;2022-11-15T14:22:59;11.23;;;7.78;;
10957;SDS011;5531;42.570;23.676;2022-11-15T14:25:29;10.98;;;7.25;;
10957;SDS011;5531;42.570;23.676;2022-11-15T14:28:09;10.90;;;7.30;;
10957;SDS011;5531;42.570;23.676;2022-11-15T14:30:46;11.95;;;7.57;;
10957;SDS011;5531;42.570;23.676;2022-11-15T14:33:22;11.98;;;7.30;;
10957;SDS011;5531;42.570;23.676;2022-11-15T14:35:53;12.82;;;7.82;;
10957;SDS011;5531;42.570;23.676;2022-11-15T14:38:24;13.23;;;8.20;;
10957;SDS011;5531;42.570;23.676;2022-11-15T14:40:53;10.25;;;7.55;;
10957;SDS011;5531;42.570;23.676;2022-11-15T14:43:23;13.02;;;8.02;;
10957;SDS011;5531;42.570;23.676;2022-11-15T14:45:55;12.38;;;8.57;;
10957;SDS011;5531;42.570;23.676;2022-11-15T14:48:24;14.68;;;8.05;;
10957;SDS011;5531;42.570;23.676;2022-11-15T14:50:54;13.25;;;8.48;;
10957;SDS011;5531;42.570;23.676;2022-11-15T14:53:23;11.68;;;7.90;;
10957;SDS011;5531;42.570;23.676;2022-11-15T14:55:52;13.32;;;8.63;;
10957;SDS011;5531;42.570;23.676;2022-11-15T14:58:21;13.65;;;8.30;;
10957;SDS011;5531;42.570;23.676;2022-11-15T15:00:50;13.35;;;7.82;;
10957;SDS011;5531;42.570;23.676;2022-11-15T15:03:22;15.32;;;9.27;;
10957;SDS011;5531;42.570;23.676;2022-11-15T15:05:51;12.93;;;9.07;;
10957;SDS011;5531;42.570;23.676;2022-11-15T15:08:21;14.20;;;8.48;;
10957;SDS011;5531;42.570;23.676;2022-11-15T15:10:50;14.80;;;9.27;;
10957;SDS011;5531;42.570;23.676;2022-11-15T15:13:20;14.35;;;9.43;;
10957;SDS011;5531;42.570;23.676;2022-11-15T15:15:51;17.48;;;9.98;;
10957;SDS011;5531;42.570;23.676;2022-11-15T15:18:23;14.48;;;9.60;;
10957;SDS011;5531;42.570;23.676;2022-11-15T15:20:54;15.43;;;10.23;;
10957;SDS011;5531;42.570;23.676;2022-11-15T15:23:28;14.65;;;9.40;;
10957;SDS011;5531;42.570;23.676;2022-11-15T15:25:57;15.18;;;9.77;;
10957;SDS011;5531;42.570;23.676;2022-11-15T15:28:26;16.35;;;9.90;;
10957;SDS011;5531;42.570;23.676;2022-11-15T15:30:55;15.77;;;9.52;;
10957;SDS011;5531;42.570;23.676;2022-11-15T15:33:27;17.90;;;10.38;;
10957;SDS011;5531;42.570;23.676;2022-11-15T15:35:56;16.88;;;9.95;;
10957;SDS011;5531;42.570;23.676;2022-11-15T15:38:25;18.63;;;10.65;;
10957;SDS011;5531;42.570;23.676;2022-11-15T15:40:54;18.58;;;10.70;;
10957;SDS011;5531;42.570;23.676;2022-11-15T15:43:24;17.27;;;10.85;;
10957;SDS011;5531;42.570;23.676;2022-11-15T15:45:54;16.42;;;10.48;;
10957;SDS011;5531;42.570;23.676;2022-11-15T15:48:24;16.27;;;10.07;;
10957;SDS011;5531;42.570;23.676;2022-11-15T15:50:55;16.75;;;10.60;;
10957;SDS011;5531;42.570;23.676;2022-11-15T15:53:24;18.98;;;11.43;;
10957;SDS011;5531;42.570;23.676;2022-11-15T15:55:54;17.17;;;10.35;;
10957;SDS011;5531;42.570;23.676;2022-11-15T15:58:23;19.10;;;10.38;;